sensor_id;sensor_type;location;lat;lon;timestamp;temperature;humidity
10911;DHT22;5508;49.150;11.030;2023-07-31T00:01:28;13.30;90.10
10911;DHT22;5508;49.150;11.030;2023-07-31T00:04:28;13.20;90.60
10911;DHT22;5508;49.150;11.030;2023-07-31T00:07:29;13.20;92.10
10911;DHT22;5508;49.150;11.030;2023-07-31T00:10:29;13.10;92.10
10911;DHT22;5508;49.150;11.030;2023-07-31T00:13:30;13.10;92.90
10911;DHT22;5508;49.150;11.030;2023-07-31T00:16:31;13.10;91.50
10911;DHT22;5508;49.150;11.030;2023-07-31T00:19:31;13.10;92.40
10911;DHT22;5508;49.150;11.030;2023-07-31T00:22:32;13.10;93.00
10911;DHT22;5508;49.150;11.030;2023-07-31T00:25:32;13.10;91.60
10911;DHT22;5508;49.150;11.030;2023-07-31T00:28:33;13.20;91.70
10911;DHT22;5508;49.150;11.030;2023-07-31T00:31:33;13.30;91.00
10911;DHT22;5508;49.150;11.030;2023-07-31T00:34:34;13.30;90.10
10911;DHT22;5508;49.150;11.030;2023-07-31T00:37:35;13.20;90.50
10911;DHT22;5508;49.150;11.030;2023-07-31T00:40:36;13.20;91.90
10911;DHT22;5508;49.150;11.030;2023-07-31T00:43:37;13.20;91.70
10911;DHT22;5508;49.150;11.030;2023-07-31T00:46:38;13.20;91.30
10911;DHT22;5508;49.150;11.030;2023-07-31T00:49:39;13.10;93.30
10911;DHT22;5508;49.150;11.030;2023-07-31T00:52:39;13.00;91.80
10911;DHT22;5508;49.150;11.030;2023-07-31T00:55:40;13.00;92.40
10911;DHT22;5508;49.150;11.030;2023-07-31T00:58:40;12.90;93.70
10911;DHT22;5508;49.150;11.030;2023-07-31T01:01:41;12.90;93.20
10911;DHT22;5508;49.150;11.030;2023-07-31T01:04:43;12.90;93.90
10911;DHT22;5508;49.150;11.030;2023-07-31T01:08:00;12.80;94.00
10911;DHT22;5508;49.150;11.030;2023-07-31T01:11:38;12.80;94.60
10911;DHT22;5508;49.150;11.030;2023-07-31T01:14:39;12.80;94.00
10911;DHT22;5508;49.150;11.030;2023-07-31T01:17:43;12.80;95.60
10911;DHT22;5508;49.150;11.030;2023-07-31T01:20:47;12.80;94.50
10911;DHT22;5508;49.150;11.030;2023-07-31T01:27:24;13.00;93.40
10911;DHT22;5508;49.150;11.030;2023-07-31T01:30:28;13.00;93.40
10911;DHT22;5508;49.150;11.030;2023-07-31T01:33:30;13.10;92.50
10911;DHT22;5508;49.150;11.030;2023-07-31T01:36:32;13.10;93.00
10911;DHT22;5508;49.150;11.030;2023-07-31T01:39:32;13.10;93.20
10911;DHT22;5508;49.150;11.030;2023-07-31T01:42:33;13.10;93.40
10911;DHT22;5508;49.150;11.030;2023-07-31T01:45:34;13.10;91.90
10911;DHT22;5508;49.150;11.030;2023-07-31T01:48:34;13.10;91.60
10911;DHT22;5508;49.150;11.030;2023-07-31T01:51:37;13.10;92.30
10911;DHT22;5508;49.150;11.030;2023-07-31T01:54:37;13.10;92.50
10911;DHT22;5508;49.150;11.030;2023-07-31T01:57:38;13.10;91.70
10911;DHT22;5508;49.150;11.030;2023-07-31T02:00:39;13.10;92.50
10911;DHT22;5508;49.150;11.030;2023-07-31T02:03:39;13.10;91.40
10911;DHT22;5508;49.150;11.030;2023-07-31T02:06:40;13.10;91.50
10911;DHT22;5508;49.150;11.030;2023-07-31T02:09:40;13.10;91.10
10911;DHT22;5508;49.150;11.030;2023-07-31T02:12:41;13.20;91.50
10911;DHT22;5508;49.150;11.030;2023-07-31T02:15:42;13.20;90.50
10911;DHT22;5508;49.150;11.030;2023-07-31T02:18:42;13.20;90.40
10911;DHT22;5508;49.150;11.030;2023-07-31T02:21:43;13.30;90.00
10911;DHT22;5508;49.150;11.030;2023-07-31T02:24:43;13.20;90.50
10911;DHT22;5508;49.150;11.030;2023-07-31T02:27:44;13.20;90.70
10911;DHT22;5508;49.150;11.030;2023-07-31T02:30:45;13.10;90.90
10911;DHT22;5508;49.150;11.030;2023-07-31T02:33:49;13.00;91.00
10911;DHT22;5508;49.150;11.030;2023-07-31T02:36:49;13.00;91.10
10911;DHT22;5508;49.150;11.030;2023-07-31T02:39:50;12.90;91.70
10911;DHT22;5508;49.150;11.030;2023-07-31T02:42:50;12.90;91.90
10911;DHT22;5508;49.150;11.030;2023-07-31T02:45:52;12.90;93.00
10911;DHT22;5508;49.150;11.030;2023-07-31T02:48:53;12.90;92.70
10911;DHT22;5508;49.150;11.030;2023-07-31T02:51:53;12.80;92.30
10911;DHT22;5508;49.150;11.030;2023-07-31T02:54:54;12.80;92.60
10911;DHT22;5508;49.150;11.030;2023-07-31T02:57:54;12.90;93.10
10911;DHT22;5508;49.150;11.030;2023-07-31T03:00:55;12.80;92.80
10911;DHT22;5508;49.150;11.030;2023-07-31T03:03:56;12.80;92.80
10911;DHT22;5508;49.150;11.030;2023-07-31T03:06:56;12.70;93.60
10911;DHT22;5508;49.150;11.030;2023-07-31T03:09:57;12.70;92.90
10911;DHT22;5508;49.150;11.030;2023-07-31T03:12:57;12.70;94.60
10911;DHT22;5508;49.150;11.030;2023-07-31T03:15:58;12.60;93.40
10911;DHT22;5508;49.150;11.030;2023-07-31T03:18:58;12.60;94.10
10911;DHT22;5508;49.150;11.030;2023-07-31T03:21:59;12.50;94.50
10911;DHT22;5508;49.150;11.030;2023-07-31T03:25:00;12.60;94.90
10911;DHT22;5508;49.150;11.030;2023-07-31T03:28:01;12.60;95.00
10911;DHT22;5508;49.150;11.030;2023-07-31T03:31:01;12.70;95.50
10911;DHT22;5508;49.150;11.030;2023-07-31T03:34:02;12.60;94.90
10911;DHT22;5508;49.150;11.030;2023-07-31T03:37:03;12.60;94.60
10911;DHT22;5508;49.150;11.030;2023-07-31T03:40:05;12.60;94.20
10911;DHT22;5508;49.150;11.030;2023-07-31T03:43:06;12.50;95.80
10911;DHT22;5508;49.150;11.030;2023-07-31T03:46:06;12.60;95.60
10911;DHT22;5508;49.150;11.030;2023-07-31T03:49:07;12.60;95.50
10911;DHT22;5508;49.150;11.030;2023-07-31T03:52:08;12.70;94.60
10911;DHT22;5508;49.150;11.030;2023-07-31T03:55:08;12.70;95.00
10911;DHT22;5508;49.150;11.030;2023-07-31T03:58:09;12.70;94.00
10911;DHT22;5508;49.150;11.030;2023-07-31T04:01:10;12.70;94.40
10911;DHT22;5508;49.150;11.030;2023-07-31T04:04:10;12.70;94.70
10911;DHT22;5508;49.150;11.030;2023-07-31T04:07:11;12.80;94.60
10911;DHT22;5508;49.150;11.030;2023-07-31T04:10:11;12.70;94.70
10911;DHT22;5508;49.150;11.030;2023-07-31T04:13:12;12.80;94.40
10911;DHT22;5508;49.150;11.030;2023-07-31T04:16:12;12.90;94.30
10911;DHT22;5508;49.150;11.030;2023-07-31T04:19:13;13.00;92.80
10911;DHT22;5508;49.150;11.030;2023-07-31T04:22:16;13.00;92.10
10911;DHT22;5508;49.150;11.030;2023-07-31T04:25:17;13.00;92.80
10911;DHT22;5508;49.150;11.030;2023-07-31T04:28:17;13.00;92.20
10911;DHT22;5508;49.150;11.030;2023-07-31T04:31:18;13.00;92.20
10911;DHT22;5508;49.150;11.030;2023-07-31T04:34:19;13.00;93.00
10911;DHT22;5508;49.150;11.030;2023-07-31T04:37:19;13.20;92.10
10911;DHT22;5508;49.150;11.030;2023-07-31T04:40:21;13.20;91.80
10911;DHT22;5508;49.150;11.030;2023-07-31T04:43:22;13.30;92.10
10911;DHT22;5508;49.150;11.030;2023-07-31T04:46:22;13.40;90.40
10911;DHT22;5508;49.150;11.030;2023-07-31T04:49:23;13.60;90.20
10911;DHT22;5508;49.150;11.030;2023-07-31T04:52:23;13.60;89.20
10911;DHT22;5508;49.150;11.030;2023-07-31T04:55:24;13.60;89.10
10911;DHT22;5508;49.150;11.030;2023-07-31T04:58:24;13.70;89.60
10911;DHT22;5508;49.150;11.030;2023-07-31T05:01:25;13.60;89.40
10911;DHT22;5508;49.150;11.030;2023-07-31T05:04:26;13.70;89.60
10911;DHT22;5508;49.150;11.030;2023-07-31T05:07:26;13.80;88.80
10911;DHT22;5508;49.150;11.030;2023-07-31T05:10:27;13.90;89.70
10911;DHT22;5508;49.150;11.030;2023-07-31T05:13:27;14.00;88.50
10911;DHT22;5508;49.150;11.030;2023-07-31T05:16:28;14.00;88.50
10911;DHT22;5508;49.150;11.030;2023-07-31T05:19:28;14.20;89.20
10911;DHT22;5508;49.150;11.030;2023-07-31T05:22:29;14.30;87.80
10911;DHT22;5508;49.150;11.030;2023-07-31T05:25:29;14.40;88.90
10911;DHT22;5508;49.150;11.030;2023-07-31T05:28:30;14.50;87.90
10911;DHT22;5508;49.150;11.030;2023-07-31T05:31:31;14.60;85.80
10911;DHT22;5508;49.150;11.030;2023-07-31T05:34:32;14.90;86.10
10911;DHT22;5508;49.150;11.030;2023-07-31T05:37:33;15.00;85.50
10911;DHT22;5508;49.150;11.030;2023-07-31T05:40:34;15.20;83.80
10911;DHT22;5508;49.150;11.030;2023-07-31T05:43:34;15.50;83.00
10911;DHT22;5508;49.150;11.030;2023-07-31T05:46:35;15.70;82.20
10911;DHT22;5508;49.150;11.030;2023-07-31T05:49:35;15.70;82.70
10911;DHT22;5508;49.150;11.030;2023-07-31T05:52:36;15.80;81.50
10911;DHT22;5508;49.150;11.030;2023-07-31T05:55:36;15.80;82.00
10911;DHT22;5508;49.150;11.030;2023-07-31T05:58:37;16.00;80.20
10911;DHT22;5508;49.150;11.030;2023-07-31T06:01:38;16.00;80.20
10911;DHT22;5508;49.150;11.030;2023-07-31T06:04:38;16.10;81.80
10911;DHT22;5508;49.150;11.030;2023-07-31T06:07:39;16.40;81.20
10911;DHT22;5508;49.150;11.030;2023-07-31T06:10:39;16.80;78.90
10911;DHT22;5508;49.150;11.030;2023-07-31T06:13:40;17.00;78.00
10911;DHT22;5508;49.150;11.030;2023-07-31T06:16:41;17.00;78.50
10911;DHT22;5508;49.150;11.030;2023-07-31T06:19:41;17.10;76.90
10911;DHT22;5508;49.150;11.030;2023-07-31T06:22:42;17.00;77.80
10911;DHT22;5508;49.150;11.030;2023-07-31T06:25:42;17.10;77.70
10911;DHT22;5508;49.150;11.030;2023-07-31T06:28:43;17.10;77.90
10911;DHT22;5508;49.150;11.030;2023-07-31T06:31:44;17.50;78.50
10911;DHT22;5508;49.150;11.030;2023-07-31T06:34:44;17.50;75.50
10911;DHT22;5508;49.150;11.030;2023-07-31T06:37:45;17.60;74.70
10911;DHT22;5508;49.150;11.030;2023-07-31T06:40:45;17.70;74.20
10911;DHT22;5508;49.150;11.030;2023-07-31T06:43:46;18.00;73.60
10911;DHT22;5508;49.150;11.030;2023-07-31T06:46:47;18.10;72.60
10911;DHT22;5508;49.150;11.030;2023-07-31T06:49:47;18.20;71.90
10911;DHT22;5508;49.150;11.030;2023-07-31T06:52:48;18.20;72.50
10911;DHT22;5508;49.150;11.030;2023-07-31T06:55:48;17.90;72.60
10911;DHT22;5508;49.150;11.030;2023-07-31T06:58:52;18.00;70.80
10911;DHT22;5508;49.150;11.030;2023-07-31T07:01:52;17.90;70.90
10911;DHT22;5508;49.150;11.030;2023-07-31T07:04:53;18.00;70.50
10911;DHT22;5508;49.150;11.030;2023-07-31T07:07:54;18.20;71.50
10911;DHT22;5508;49.150;11.030;2023-07-31T07:10:54;18.20;69.60
10911;DHT22;5508;49.150;11.030;2023-07-31T07:13:55;18.20;69.00
10911;DHT22;5508;49.150;11.030;2023-07-31T07:16:55;18.20;69.70
10911;DHT22;5508;49.150;11.030;2023-07-31T07:19:56;18.30;68.90
10911;DHT22;5508;49.150;11.030;2023-07-31T07:22:57;18.00;69.30
10911;DHT22;5508;49.150;11.030;2023-07-31T07:25:58;18.20;69.70
10911;DHT22;5508;49.150;11.030;2023-07-31T07:28:58;18.30;68.60
10911;DHT22;5508;49.150;11.030;2023-07-31T07:32:01;18.20;68.00
10911;DHT22;5508;49.150;11.030;2023-07-31T07:35:02;18.20;69.00
10911;DHT22;5508;49.150;11.030;2023-07-31T07:38:03;18.00;68.90
10911;DHT22;5508;49.150;11.030;2023-07-31T07:41:04;18.10;69.60
10911;DHT22;5508;49.150;11.030;2023-07-31T07:44:04;18.10;67.70
10911;DHT22;5508;49.150;11.030;2023-07-31T07:47:05;18.40;68.30
10911;DHT22;5508;49.150;11.030;2023-07-31T07:50:09;18.30;67.00
10911;DHT22;5508;49.150;11.030;2023-07-31T07:53:09;18.40;68.60
10911;DHT22;5508;49.150;11.030;2023-07-31T07:56:10;18.50;66.90
10911;DHT22;5508;49.150;11.030;2023-07-31T07:59:11;18.50;67.50
10911;DHT22;5508;49.150;11.030;2023-07-31T08:02:11;18.40;67.80
10911;DHT22;5508;49.150;11.030;2023-07-31T08:05:12;18.50;65.60
10911;DHT22;5508;49.150;11.030;2023-07-31T08:08:16;18.40;64.30
10911;DHT22;5508;49.150;11.030;2023-07-31T08:11:17;18.40;65.00
10911;DHT22;5508;49.150;11.030;2023-07-31T08:14:17;18.40;66.10
10911;DHT22;5508;49.150;11.030;2023-07-31T08:17:18;18.70;65.00
10911;DHT22;5508;49.150;11.030;2023-07-31T08:20:19;19.00;65.70
10911;DHT22;5508;49.150;11.030;2023-07-31T08:23:19;19.20;65.30
10911;DHT22;5508;49.150;11.030;2023-07-31T08:26:20;19.20;65.00
10911;DHT22;5508;49.150;11.030;2023-07-31T08:29:21;19.00;64.60
10911;DHT22;5508;49.150;11.030;2023-07-31T08:32:22;18.80;64.40
10911;DHT22;5508;49.150;11.030;2023-07-31T08:35:23;18.80;66.20
10911;DHT22;5508;49.150;11.030;2023-07-31T08:38:25;19.10;66.50
10911;DHT22;5508;49.150;11.030;2023-07-31T08:41:27;19.30;65.60
10911;DHT22;5508;49.150;11.030;2023-07-31T08:44:29;19.30;63.90
10911;DHT22;5508;49.150;11.030;2023-07-31T08:47:31;19.30;66.70
10911;DHT22;5508;49.150;11.030;2023-07-31T08:50:32;19.10;64.40
10911;DHT22;5508;49.150;11.030;2023-07-31T08:53:33;19.20;66.10
10911;DHT22;5508;49.150;11.030;2023-07-31T08:56:34;19.10;66.30
10911;DHT22;5508;49.150;11.030;2023-07-31T08:59:36;19.30;67.30
10911;DHT22;5508;49.150;11.030;2023-07-31T09:02:52;19.50;65.70
10911;DHT22;5508;49.150;11.030;2023-07-31T09:05:56;20.10;67.40
10911;DHT22;5508;49.150;11.030;2023-07-31T09:08:58;20.40;59.80
10911;DHT22;5508;49.150;11.030;2023-07-31T09:11:58;20.00;63.30
10911;DHT22;5508;49.150;11.030;2023-07-31T09:15:00;20.80;62.00
10911;DHT22;5508;49.150;11.030;2023-07-31T09:18:02;20.70;60.90
10911;DHT22;5508;49.150;11.030;2023-07-31T09:21:04;20.50;63.50
10911;DHT22;5508;49.150;11.030;2023-07-31T09:24:05;20.50;61.80
10911;DHT22;5508;49.150;11.030;2023-07-31T09:27:06;20.20;62.10
10911;DHT22;5508;49.150;11.030;2023-07-31T09:30:07;20.40;60.70
10911;DHT22;5508;49.150;11.030;2023-07-31T09:33:09;20.40;59.30
10911;DHT22;5508;49.150;11.030;2023-07-31T09:36:10;20.70;61.00
10911;DHT22;5508;49.150;11.030;2023-07-31T09:39:11;20.50;59.00
10911;DHT22;5508;49.150;11.030;2023-07-31T09:42:12;20.30;61.00
10911;DHT22;5508;49.150;11.030;2023-07-31T09:45:13;20.00;62.00
10911;DHT22;5508;49.150;11.030;2023-07-31T09:48:18;20.10;59.20
10911;DHT22;5508;49.150;11.030;2023-07-31T09:51:29;20.10;60.70
10911;DHT22;5508;49.150;11.030;2023-07-31T09:54:31;20.20;58.90
10911;DHT22;5508;49.150;11.030;2023-07-31T09:57:33;20.60;61.70
10911;DHT22;5508;49.150;11.030;2023-07-31T10:00:34;21.00;58.60
10911;DHT22;5508;49.150;11.030;2023-07-31T10:03:36;20.90;59.10
10911;DHT22;5508;49.150;11.030;2023-07-31T10:06:38;20.60;58.40
10911;DHT22;5508;49.150;11.030;2023-07-31T10:09:39;20.70;59.30
10911;DHT22;5508;49.150;11.030;2023-07-31T10:12:40;20.90;58.30
10911;DHT22;5508;49.150;11.030;2023-07-31T10:15:42;20.70;58.60
10911;DHT22;5508;49.150;11.030;2023-07-31T10:18:44;20.70;58.00
10911;DHT22;5508;49.150;11.030;2023-07-31T10:21:45;21.00;58.40
10911;DHT22;5508;49.150;11.030;2023-07-31T10:24:48;21.00;59.00
10911;DHT22;5508;49.150;11.030;2023-07-31T10:27:50;21.30;59.90
10911;DHT22;5508;49.150;11.030;2023-07-31T10:30:53;21.10;57.40
10911;DHT22;5508;49.150;11.030;2023-07-31T10:33:55;21.20;56.30
10911;DHT22;5508;49.150;11.030;2023-07-31T10:37:20;21.10;59.40
10911;DHT22;5508;49.150;11.030;2023-07-31T10:40:27;21.00;55.90
10911;DHT22;5508;49.150;11.030;2023-07-31T10:43:27;21.10;57.30
10911;DHT22;5508;49.150;11.030;2023-07-31T10:46:28;21.60;57.60
10911;DHT22;5508;49.150;11.030;2023-07-31T10:49:30;22.10;57.50
10911;DHT22;5508;49.150;11.030;2023-07-31T10:52:35;21.80;56.50
10911;DHT22;5508;49.150;11.030;2023-07-31T10:55:40;21.70;55.90
10911;DHT22;5508;49.150;11.030;2023-07-31T10:58:44;21.80;57.10
10911;DHT22;5508;49.150;11.030;2023-07-31T11:01:55;21.30;56.10
10911;DHT22;5508;49.150;11.030;2023-07-31T11:05:07;21.00;56.80
10911;DHT22;5508;49.150;11.030;2023-07-31T11:08:20;21.00;56.80
10911;DHT22;5508;49.150;11.030;2023-07-31T11:11:22;21.40;58.10
10911;DHT22;5508;49.150;11.030;2023-07-31T11:14:23;21.60;57.60
10911;DHT22;5508;49.150;11.030;2023-07-31T11:17:25;21.50;56.00
10911;DHT22;5508;49.150;11.030;2023-07-31T11:20:27;21.90;56.40
10911;DHT22;5508;49.150;11.030;2023-07-31T11:23:27;22.00;56.00
10911;DHT22;5508;49.150;11.030;2023-07-31T11:26:28;22.00;54.90
10911;DHT22;5508;49.150;11.030;2023-07-31T11:29:29;22.00;54.40
10911;DHT22;5508;49.150;11.030;2023-07-31T11:32:30;22.10;54.80
10911;DHT22;5508;49.150;11.030;2023-07-31T11:35:31;21.80;56.00
10911;DHT22;5508;49.150;11.030;2023-07-31T11:38:33;22.10;56.70
10911;DHT22;5508;49.150;11.030;2023-07-31T11:41:34;22.40;54.90
10911;DHT22;5508;49.150;11.030;2023-07-31T11:44:39;22.30;55.40
10911;DHT22;5508;49.150;11.030;2023-07-31T11:47:41;22.30;54.40
10911;DHT22;5508;49.150;11.030;2023-07-31T11:50:42;22.20;52.80
10911;DHT22;5508;49.150;11.030;2023-07-31T11:53:49;22.00;53.80
10911;DHT22;5508;49.150;11.030;2023-07-31T11:56:50;21.90;53.80
10911;DHT22;5508;49.150;11.030;2023-07-31T11:59:51;21.70;55.80
10911;DHT22;5508;49.150;11.030;2023-07-31T12:02:53;22.20;54.50
10911;DHT22;5508;49.150;11.030;2023-07-31T12:05:54;22.20;52.70
10911;DHT22;5508;49.150;11.030;2023-07-31T12:09:03;22.40;55.20
10911;DHT22;5508;49.150;11.030;2023-07-31T12:12:08;22.30;54.20
10911;DHT22;5508;49.150;11.030;2023-07-31T12:15:15;22.20;52.70
10911;DHT22;5508;49.150;11.030;2023-07-31T12:18:19;22.00;55.10
10911;DHT22;5508;49.150;11.030;2023-07-31T12:21:20;22.20;53.30
10911;DHT22;5508;49.150;11.030;2023-07-31T12:24:21;22.10;53.80
10911;DHT22;5508;49.150;11.030;2023-07-31T12:27:22;22.10;53.10
10911;DHT22;5508;49.150;11.030;2023-07-31T12:30:45;22.30;54.60
10911;DHT22;5508;49.150;11.030;2023-07-31T12:33:47;22.80;53.70
10911;DHT22;5508;49.150;11.030;2023-07-31T12:36:49;23.00;51.80
10911;DHT22;5508;49.150;11.030;2023-07-31T12:39:52;23.00;52.70
10911;DHT22;5508;49.150;11.030;2023-07-31T12:42:53;22.80;51.00
10911;DHT22;5508;49.150;11.030;2023-07-31T12:45:55;22.50;52.60
10911;DHT22;5508;49.150;11.030;2023-07-31T12:49:05;22.50;53.10
10911;DHT22;5508;49.150;11.030;2023-07-31T12:52:06;22.30;51.40
10911;DHT22;5508;49.150;11.030;2023-07-31T12:55:07;22.60;52.90
10911;DHT22;5508;49.150;11.030;2023-07-31T12:58:07;22.50;51.80
10911;DHT22;5508;49.150;11.030;2023-07-31T13:01:08;22.50;52.10
10911;DHT22;5508;49.150;11.030;2023-07-31T13:04:09;22.50;51.50
10911;DHT22;5508;49.150;11.030;2023-07-31T13:07:09;22.50;53.40
10911;DHT22;5508;49.150;11.030;2023-07-31T13:10:10;22.70;52.70
10911;DHT22;5508;49.150;11.030;2023-07-31T13:13:10;22.90;52.60
10911;DHT22;5508;49.150;11.030;2023-07-31T13:16:11;22.90;51.40
10911;DHT22;5508;49.150;11.030;2023-07-31T13:19:11;22.50;51.20
10911;DHT22;5508;49.150;11.030;2023-07-31T13:22:12;22.60;52.70
10911;DHT22;5508;49.150;11.030;2023-07-31T13:25:13;22.50;50.60
10911;DHT22;5508;49.150;11.030;2023-07-31T13:28:13;22.80;52.90
10911;DHT22;5508;49.150;11.030;2023-07-31T13:31:14;22.90;50.70
10911;DHT22;5508;49.150;11.030;2023-07-31T13:34:15;23.20;49.60
10911;DHT22;5508;49.150;11.030;2023-07-31T13:37:16;23.10;49.80
10911;DHT22;5508;49.150;11.030;2023-07-31T13:40:16;23.20;47.90
10911;DHT22;5508;49.150;11.030;2023-07-31T13:43:17;22.90;49.90
10911;DHT22;5508;49.150;11.030;2023-07-31T13:46:17;23.00;49.70
10911;DHT22;5508;49.150;11.030;2023-07-31T13:49:18;22.80;50.00
10911;DHT22;5508;49.150;11.030;2023-07-31T13:52:18;22.80;52.50
10911;DHT22;5508;49.150;11.030;2023-07-31T13:55:19;22.90;51.00
10911;DHT22;5508;49.150;11.030;2023-07-31T13:58:20;22.80;50.40
10911;DHT22;5508;49.150;11.030;2023-07-31T14:01:21;22.70;51.20
10911;DHT22;5508;49.150;11.030;2023-07-31T14:04:21;22.60;50.50
10911;DHT22;5508;49.150;11.030;2023-07-31T14:07:22;22.70;50.70
10911;DHT22;5508;49.150;11.030;2023-07-31T14:10:23;22.70;51.70
10911;DHT22;5508;49.150;11.030;2023-07-31T14:13:23;22.80;53.30
10911;DHT22;5508;49.150;11.030;2023-07-31T14:16:24;22.70;50.20
10911;DHT22;5508;49.150;11.030;2023-07-31T14:19:24;22.70;50.70
10911;DHT22;5508;49.150;11.030;2023-07-31T14:22:31;22.90;51.10
10911;DHT22;5508;49.150;11.030;2023-07-31T14:25:33;22.90;49.80
10911;DHT22;5508;49.150;11.030;2023-07-31T14:28:34;22.70;50.80
10911;DHT22;5508;49.150;11.030;2023-07-31T14:31:36;22.40;52.10
10911;DHT22;5508;49.150;11.030;2023-07-31T14:34:36;22.00;52.80
10911;DHT22;5508;49.150;11.030;2023-07-31T14:37:39;21.90;54.00
10911;DHT22;5508;49.150;11.030;2023-07-31T14:40:40;22.00;54.40
10911;DHT22;5508;49.150;11.030;2023-07-31T14:43:41;21.90;55.40
10911;DHT22;5508;49.150;11.030;2023-07-31T14:46:41;21.60;54.30
10911;DHT22;5508;49.150;11.030;2023-07-31T14:49:42;21.60;55.30
10911;DHT22;5508;49.150;11.030;2023-07-31T14:52:42;21.50;55.40
10911;DHT22;5508;49.150;11.030;2023-07-31T14:55:43;21.40;55.50
10911;DHT22;5508;49.150;11.030;2023-07-31T14:58:44;21.40;55.80
10911;DHT22;5508;49.150;11.030;2023-07-31T15:01:44;21.50;55.70
10911;DHT22;5508;49.150;11.030;2023-07-31T15:04:45;21.40;54.90
10911;DHT22;5508;49.150;11.030;2023-07-31T15:07:45;21.50;54.90
10911;DHT22;5508;49.150;11.030;2023-07-31T15:10:46;21.60;54.40
10911;DHT22;5508;49.150;11.030;2023-07-31T15:13:46;21.50;54.00
10911;DHT22;5508;49.150;11.030;2023-07-31T15:16:47;21.40;53.60
10911;DHT22;5508;49.150;11.030;2023-07-31T15:19:48;21.40;53.80
10911;DHT22;5508;49.150;11.030;2023-07-31T15:22:48;21.30;55.20
10911;DHT22;5508;49.150;11.030;2023-07-31T15:25:49;21.20;55.30
10911;DHT22;5508;49.150;11.030;2023-07-31T15:29:00;21.20;55.10
10911;DHT22;5508;49.150;11.030;2023-07-31T15:32:01;21.00;57.20
10911;DHT22;5508;49.150;11.030;2023-07-31T15:35:02;20.90;57.00
10911;DHT22;5508;49.150;11.030;2023-07-31T15:38:02;21.00;54.50
10911;DHT22;5508;49.150;11.030;2023-07-31T15:41:03;20.90;54.60
10911;DHT22;5508;49.150;11.030;2023-07-31T15:44:05;21.10;55.50
10911;DHT22;5508;49.150;11.030;2023-07-31T15:47:05;21.10;54.90
10911;DHT22;5508;49.150;11.030;2023-07-31T15:50:06;21.10;54.40
10911;DHT22;5508;49.150;11.030;2023-07-31T15:53:07;21.20;55.50
10911;DHT22;5508;49.150;11.030;2023-07-31T15:56:07;21.00;54.40
10911;DHT22;5508;49.150;11.030;2023-07-31T15:59:08;21.10;55.80
10911;DHT22;5508;49.150;11.030;2023-07-31T16:02:09;21.20;55.10
10911;DHT22;5508;49.150;11.030;2023-07-31T16:05:13;21.30;55.00
10911;DHT22;5508;49.150;11.030;2023-07-31T16:08:13;21.30;55.60
10911;DHT22;5508;49.150;11.030;2023-07-31T16:11:14;21.30;56.30
10911;DHT22;5508;49.150;11.030;2023-07-31T16:14:15;21.40;55.80
10911;DHT22;5508;49.150;11.030;2023-07-31T16:17:15;21.50;54.40
10911;DHT22;5508;49.150;11.030;2023-07-31T16:20:16;21.50;55.30
10911;DHT22;5508;49.150;11.030;2023-07-31T16:23:17;21.60;56.60
10911;DHT22;5508;49.150;11.030;2023-07-31T16:26:17;21.50;55.80
10911;DHT22;5508;49.150;11.030;2023-07-31T16:29:18;21.50;55.70
10911;DHT22;5508;49.150;11.030;2023-07-31T16:32:18;21.50;54.70
10911;DHT22;5508;49.150;11.030;2023-07-31T16:35:19;21.60;54.90
10911;DHT22;5508;49.150;11.030;2023-07-31T16:38:19;21.60;54.70
10911;DHT22;5508;49.150;11.030;2023-07-31T16:41:20;21.70;53.90
10911;DHT22;5508;49.150;11.030;2023-07-31T16:44:21;21.80;54.20
10911;DHT22;5508;49.150;11.030;2023-07-31T16:47:22;21.70;52.10
10911;DHT22;5508;49.150;11.030;2023-07-31T16:50:22;21.50;54.10
10911;DHT22;5508;49.150;11.030;2023-07-31T16:53:23;21.30;53.50
10911;DHT22;5508;49.150;11.030;2023-07-31T16:56:23;21.30;53.10
10911;DHT22;5508;49.150;11.030;2023-07-31T16:59:24;21.20;54.30
10911;DHT22;5508;49.150;11.030;2023-07-31T17:02:25;21.20;53.30
10911;DHT22;5508;49.150;11.030;2023-07-31T17:05:25;21.20;53.80
10911;DHT22;5508;49.150;11.030;2023-07-31T17:08:26;21.20;55.20
10911;DHT22;5508;49.150;11.030;2023-07-31T17:11:27;21.30;54.00
10911;DHT22;5508;49.150;11.030;2023-07-31T17:14:27;21.30;54.60
10911;DHT22;5508;49.150;11.030;2023-07-31T17:17:28;21.40;54.60
10911;DHT22;5508;49.150;11.030;2023-07-31T17:20:29;21.60;55.00
10911;DHT22;5508;49.150;11.030;2023-07-31T17:23:32;21.50;55.00
10911;DHT22;5508;49.150;11.030;2023-07-31T17:26:33;21.50;54.10
10911;DHT22;5508;49.150;11.030;2023-07-31T17:29:33;21.40;54.80
10911;DHT22;5508;49.150;11.030;2023-07-31T17:32:34;21.20;54.80
10911;DHT22;5508;49.150;11.030;2023-07-31T17:35:34;21.10;56.40
10911;DHT22;5508;49.150;11.030;2023-07-31T17:38:35;21.00;55.70
10911;DHT22;5508;49.150;11.030;2023-07-31T17:41:36;20.90;56.60
10911;DHT22;5508;49.150;11.030;2023-07-31T17:44:36;20.80;56.60
10911;DHT22;5508;49.150;11.030;2023-07-31T17:47:37;20.60;56.50
10911;DHT22;5508;49.150;11.030;2023-07-31T17:50:37;20.60;56.90
10911;DHT22;5508;49.150;11.030;2023-07-31T17:53:38;20.50;57.40
10911;DHT22;5508;49.150;11.030;2023-07-31T17:56:38;20.50;58.20
10911;DHT22;5508;49.150;11.030;2023-07-31T17:59:39;20.40;57.90
10911;DHT22;5508;49.150;11.030;2023-07-31T18:02:40;20.40;58.50
10911;DHT22;5508;49.150;11.030;2023-07-31T18:05:41;20.30;58.20
10911;DHT22;5508;49.150;11.030;2023-07-31T18:08:41;20.30;59.10
10911;DHT22;5508;49.150;11.030;2023-07-31T18:11:42;20.20;59.70
10911;DHT22;5508;49.150;11.030;2023-07-31T18:14:42;20.10;59.50
10911;DHT22;5508;49.150;11.030;2023-07-31T18:17:43;20.10;60.10
10911;DHT22;5508;49.150;11.030;2023-07-31T18:20:44;20.00;59.80
10911;DHT22;5508;49.150;11.030;2023-07-31T18:23:45;19.90;60.50
10911;DHT22;5508;49.150;11.030;2023-07-31T18:26:46;19.90;61.40
10911;DHT22;5508;49.150;11.030;2023-07-31T18:29:46;19.90;61.80
10911;DHT22;5508;49.150;11.030;2023-07-31T18:32:47;19.90;61.30
10911;DHT22;5508;49.150;11.030;2023-07-31T18:35:47;19.80;63.00
10911;DHT22;5508;49.150;11.030;2023-07-31T18:38:48;19.80;63.50
10911;DHT22;5508;49.150;11.030;2023-07-31T18:41:49;19.70;64.40
10911;DHT22;5508;49.150;11.030;2023-07-31T18:44:49;19.70;64.10
10911;DHT22;5508;49.150;11.030;2023-07-31T18:47:50;19.70;63.90
10911;DHT22;5508;49.150;11.030;2023-07-31T18:50:51;19.70;63.40
10911;DHT22;5508;49.150;11.030;2023-07-31T18:53:52;19.60;63.50
10911;DHT22;5508;49.150;11.030;2023-07-31T18:56:52;19.70;62.80
10911;DHT22;5508;49.150;11.030;2023-07-31T18:59:53;19.70;64.10
10911;DHT22;5508;49.150;11.030;2023-07-31T19:02:53;19.60;64.80
10911;DHT22;5508;49.150;11.030;2023-07-31T19:06:01;19.60;64.70
10911;DHT22;5508;49.150;11.030;2023-07-31T19:09:05;19.50;66.30